sensor_id;sensor_type;location;lat;lon;timestamp;pressure;altitude;pressure_sealevel;temperature;humidity
1207;BME280;593;53.184;8.216;2023-11-21T00:00:53;100574.59;;;11.54;100.00
1207;BME280;593;53.184;8.216;2023-11-21T00:03:18;100575.44;;;11.54;100.00
1207;BME280;593;53.184;8.216;2023-11-21T00:05:44;100573.03;;;11.48;100.00
1207;BME280;593;53.184;8.216;2023-11-21T00:08:09;100577.91;;;11.51;100.00
1207;BME280;593;53.184;8.216;2023-11-21T00:10:36;100575.19;;;11.51;100.00
1207;BME280;593;53.184;8.216;2023-11-21T00:13:04;100575.47;;;11.49;100.00
1207;BME280;593;53.184;8.216;2023-11-21T00:15:29;100574.66;;;11.49;100.00
1207;BME280;593;53.184;8.216;2023-11-21T00:17:54;100575.25;;;11.46;100.00
1207;BME280;593;53.184;8.216;2023-11-21T00:20:20;100577.66;;;11.47;100.00
1207;BME280;593;53.184;8.216;2023-11-21T00:22:46;100587.78;;;11.47;100.00
1207;BME280;593;53.184;8.216;2023-11-21T00:25:12;100586.94;;;11.46;100.00
1207;BME280;593;53.184;8.216;2023-11-21T00:27:40;100589.16;;;11.44;100.00
1207;BME280;593;53.184;8.216;2023-11-21T00:30:05;100586.19;;;11.41;100.00
1207;BME280;593;53.184;8.216;2023-11-21T00:32:31;100589.44;;;11.43;100.00
1207;BME280;593;53.184;8.216;2023-11-21T00:34:57;100591.63;;;11.41;100.00
1207;BME280;593;53.184;8.216;2023-11-21T00:37:22;100596.56;;;11.39;100.00
1207;BME280;593;53.184;8.216;2023-11-21T00:39:50;100596.84;;;11.37;100.00
1207;BME280;593;53.184;8.216;2023-11-21T00:42:15;100583.28;;;11.32;100.00
1207;BME280;593;53.184;8.216;2023-11-21T00:44:41;100596.06;;;11.37;100.00
1207;BME280;593;53.184;8.216;2023-11-21T00:47:06;100594.41;;;11.36;100.00
1207;BME280;593;53.184;8.216;2023-11-21T00:52:54;100606.69;;;11.33;100.00
1207;BME280;593;53.184;8.216;2023-11-21T00:55:20;100592.56;;;11.31;100.00
1207;BME280;593;53.184;8.216;2023-11-21T00:57:46;100598.53;;;11.33;100.00
1207;BME280;593;53.184;8.216;2023-11-21T01:00:12;100607.78;;;11.32;100.00
1207;BME280;593;53.184;8.216;2023-11-21T01:02:43;100613.22;;;11.32;100.00
1207;BME280;593;53.184;8.216;2023-11-21T01:05:10;100616.78;;;11.33;100.00
1207;BME280;593;53.184;8.216;2023-11-21T01:07:36;100614.88;;;11.33;100.00
1207;BME280;593;53.184;8.216;2023-11-21T01:10:03;100633.13;;;11.33;100.00
1207;BME280;593;53.184;8.216;2023-11-21T01:12:31;100635.00;;;11.32;100.00
1207;BME280;593;53.184;8.216;2023-11-21T01:14:56;100635.63;;;11.29;100.00
1207;BME280;593;53.184;8.216;2023-11-21T01:17:22;100639.38;;;11.33;100.00
1207;BME280;593;53.184;8.216;2023-11-21T01:19:48;100640.47;;;11.32;100.00
1207;BME280;593;53.184;8.216;2023-11-21T01:22:13;100642.41;;;11.32;100.00
1207;BME280;593;53.184;8.216;2023-11-21T01:24:39;100647.53;;;11.33;100.00
1207;BME280;593;53.184;8.216;2023-11-21T01:27:04;100652.69;;;11.35;100.00
1207;BME280;593;53.184;8.216;2023-11-21T01:29:30;100658.13;;;11.35;100.00
1207;BME280;593;53.184;8.216;2023-11-21T01:31:55;100656.22;;;11.35;100.00
1207;BME280;593;53.184;8.216;2023-11-21T01:34:22;100660.28;;;11.38;100.00
1207;BME280;593;53.184;8.216;2023-11-21T01:36:48;100661.13;;;11.38;100.00
1207;BME280;593;53.184;8.216;2023-11-21T01:39:15;100665.53;;;11.34;100.00
1207;BME280;593;53.184;8.216;2023-11-21T01:41:42;100670.91;;;11.39;100.00
1207;BME280;593;53.184;8.216;2023-11-21T01:44:09;100679.09;;;11.39;100.00
1207;BME280;593;53.184;8.216;2023-11-21T01:46:35;100670.66;;;11.36;100.00
1207;BME280;593;53.184;8.216;2023-11-21T01:49:01;100676.88;;;11.41;100.00
1207;BME280;593;53.184;8.216;2023-11-21T01:51:27;100681.22;;;11.42;100.00
1207;BME280;593;53.184;8.216;2023-11-21T01:53:52;100682.03;;;11.43;100.00
1207;BME280;593;53.184;8.216;2023-11-21T01:56:17;100679.31;;;11.43;100.00
1207;BME280;593;53.184;8.216;2023-11-21T01:58:43;100680.13;;;11.43;100.00
1207;BME280;593;53.184;8.216;2023-11-21T02:01:09;100685.56;;;11.43;100.00
1207;BME280;593;53.184;8.216;2023-11-21T02:03:35;100689.94;;;11.44;100.00
1207;BME280;593;53.184;8.216;2023-11-21T02:06:01;100689.38;;;11.42;100.00
1207;BME280;593;53.184;8.216;2023-11-21T02:08:26;100698.63;;;11.46;100.00
1207;BME280;593;53.184;8.216;2023-11-21T02:10:52;100699.44;;;11.47;100.00
1207;BME280;593;53.184;8.216;2023-11-21T02:13:17;100701.03;;;11.48;100.00
1207;BME280;593;53.184;8.216;2023-11-21T02:15:43;100691.84;;;11.44;100.00
1207;BME280;593;53.184;8.216;2023-11-21T02:18:08;100701.88;;;11.48;100.00
1207;BME280;593;53.184;8.216;2023-11-21T02:20:36;100713.56;;;11.49;100.00
1207;BME280;593;53.184;8.216;2023-11-21T02:23:04;100708.94;;;11.49;100.00
1207;BME280;593;53.184;8.216;2023-11-21T02:25:31;100713.56;;;11.49;100.00
1207;BME280;593;53.184;8.216;2023-11-21T02:27:59;100717.38;;;11.48;100.00
1207;BME280;593;53.184;8.216;2023-11-21T02:30:25;100716.56;;;11.47;100.00
1207;BME280;593;53.184;8.216;2023-11-21T02:32:51;100711.94;;;11.48;100.00
1207;BME280;593;53.184;8.216;2023-11-21T02:35:23;100718.78;;;11.45;100.00
1207;BME280;593;53.184;8.216;2023-11-21T02:37:51;100719.03;;;11.49;100.00
1207;BME280;593;53.184;8.216;2023-11-21T02:40:16;100729.63;;;11.50;100.00
1207;BME280;593;53.184;8.216;2023-11-21T02:42:50;100733.16;;;11.51;100.00
1207;BME280;593;53.184;8.216;2023-11-21T02:45:19;100735.88;;;11.51;100.00
1207;BME280;593;53.184;8.216;2023-11-21T02:47:46;100736.19;;;11.49;100.00
1207;BME280;593;53.184;8.216;2023-11-21T02:50:12;100732.66;;;11.49;100.00
1207;BME280;593;53.184;8.216;2023-11-21T02:52:38;100733.16;;;11.51;100.00
1207;BME280;593;53.184;8.216;2023-11-21T02:55:05;100728.53;;;11.51;100.00
1207;BME280;593;53.184;8.216;2023-11-21T02:57:32;100737.53;;;11.52;100.00
1207;BME280;593;53.184;8.216;2023-11-21T02:59:58;100734.81;;;11.52;100.00
1207;BME280;593;53.184;8.216;2023-11-21T03:02:25;100736.72;;;11.51;100.00
1207;BME280;593;53.184;8.216;2023-11-21T03:04:50;100735.88;;;11.51;100.00
1207;BME280;593;53.184;8.216;2023-11-21T03:07:16;100739.44;;;11.51;100.00
1207;BME280;593;53.184;8.216;2023-11-21T03:09:44;100743.75;;;11.52;100.00
1207;BME280;593;53.184;8.216;2023-11-21T03:12:10;100749.22;;;11.52;100.00
1207;BME280;593;53.184;8.216;2023-11-21T03:14:38;100745.69;;;11.52;100.00
1207;BME280;593;53.184;8.216;2023-11-21T03:17:03;100751.66;;;11.54;100.00
1207;BME280;593;53.184;8.216;2023-11-21T03:19:30;100754.38;;;11.54;100.00
1207;BME280;593;53.184;8.216;2023-11-21T03:21:55;100761.22;;;11.51;100.00
1207;BME280;593;53.184;8.216;2023-11-21T03:24:20;100766.09;;;11.54;100.00
1207;BME280;593;53.184;8.216;2023-11-21T03:26:48;100778.59;;;11.55;100.00
1207;BME280;593;53.184;8.216;2023-11-21T03:29:14;100772.63;;;11.53;100.00
1207;BME280;593;53.184;8.216;2023-11-21T03:31:40;100770.22;;;11.52;100.00
1207;BME280;593;53.184;8.216;2023-11-21T03:34:05;100780.28;;;11.51;100.00
1207;BME280;593;53.184;8.216;2023-11-21T03:36:31;100788.97;;;11.53;100.00
1207;BME280;593;53.184;8.216;2023-11-21T03:38:56;100787.06;;;11.54;100.00
1207;BME280;593;53.184;8.216;2023-11-21T03:41:22;100791.72;;;11.53;100.00
1207;BME280;593;53.184;8.216;2023-11-21T03:43:47;100786.25;;;11.53;100.00
1207;BME280;593;53.184;8.216;2023-11-21T03:46:12;100794.44;;;11.53;100.00
1207;BME280;593;53.184;8.216;2023-11-21T03:48:38;100789.28;;;11.52;100.00
1207;BME280;593;53.184;8.216;2023-11-21T03:51:04;100794.72;;;11.52;100.00
1207;BME280;593;53.184;8.216;2023-11-21T03:53:29;100800.44;;;11.50;100.00
1207;BME280;593;53.184;8.216;2023-11-21T03:55:54;100791.75;;;11.48;100.00
1207;BME280;593;53.184;8.216;2023-11-21T03:58:20;100798.28;;;11.47;100.00
1207;BME280;593;53.184;8.216;2023-11-21T04:00:46;100802.66;;;11.48;100.00
1207;BME280;593;53.184;8.216;2023-11-21T04:03:13;100809.72;;;11.49;100.00
1207;BME280;593;53.184;8.216;2023-11-21T04:05:39;100817.91;;;11.49;100.00
1207;BME280;593;53.184;8.216;2023-11-21T04:08:04;100818.69;;;11.50;100.00
1207;BME280;593;53.184;8.216;2023-11-21T04:10:29;100820.06;;;11.47;100.00
1207;BME280;593;53.184;8.216;2023-11-21T04:12:55;100831.53;;;11.49;100.00
1207;BME280;593;53.184;8.216;2023-11-21T04:15:20;100832.91;;;11.47;100.00
1207;BME280;593;53.184;8.216;2023-11-21T04:17:45;100838.88;;;11.49;100.00
1207;BME280;593;53.184;8.216;2023-11-21T04:20:11;100838.88;;;11.49;100.00
1207;BME280;593;53.184;8.216;2023-11-21T04:22:40;100841.84;;;11.47;100.00
1207;BME280;593;53.184;8.216;2023-11-21T04:25:14;100856.84;;;11.45;100.00
1207;BME280;593;53.184;8.216;2023-11-21T04:27:40;100858.50;;;11.46;100.00
1207;BME280;593;53.184;8.216;2023-11-21T04:30:09;100859.59;;;11.45;100.00
1207;BME280;593;53.184;8.216;2023-11-21T04:32:35;100869.69;;;11.44;100.00
1207;BME280;593;53.184;8.216;2023-11-21T04:35:01;100875.41;;;11.43;100.00
1207;BME280;593;53.184;8.216;2023-11-21T04:37:26;100865.72;;;11.27;100.00
1207;BME280;593;53.184;8.216;2023-11-21T04:39:51;100868.41;;;11.32;100.00
1207;BME280;593;53.184;8.216;2023-11-21T04:42:17;100875.47;;;11.33;100.00
1207;BME280;593;53.184;8.216;2023-11-21T04:44:42;100883.91;;;11.36;100.00
1207;BME280;593;53.184;8.216;2023-11-21T04:47:09;100896.41;;;11.37;100.00
1207;BME280;593;53.184;8.216;2023-11-21T04:49:34;100893.69;;;11.37;100.00
1207;BME280;593;53.184;8.216;2023-11-21T04:52:00;100892.88;;;11.37;100.00
1207;BME280;593;53.184;8.216;2023-11-21T04:54:26;100892.34;;;11.30;100.00
1207;BME280;593;53.184;8.216;2023-11-21T04:56:51;100897.53;;;11.31;100.00
1207;BME280;593;53.184;8.216;2023-11-21T04:59:17;100882.63;;;11.19;100.00
1207;BME280;593;53.184;8.216;2023-11-21T05:01:42;100906.78;;;11.30;100.00
1207;BME280;593;53.184;8.216;2023-11-21T05:04:07;100899.19;;;11.27;100.00
1207;BME280;593;53.184;8.216;2023-11-21T05:06:34;100882.16;;;11.07;100.00
1207;BME280;593;53.184;8.216;2023-11-21T05:08:59;100910.09;;;11.22;100.00
1207;BME280;593;53.184;8.216;2023-11-21T05:11:28;100930.47;;;11.30;100.00
1207;BME280;593;53.184;8.216;2023-11-21T05:13:54;100927.75;;;11.30;100.00
1207;BME280;593;53.184;8.216;2023-11-21T05:16:21;100934.31;;;11.29;100.00
1207;BME280;593;53.184;8.216;2023-11-21T05:18:47;100932.97;;;11.26;100.00
1207;BME280;593;53.184;8.216;2023-11-21T05:21:12;100945.47;;;11.27;100.00
1207;BME280;593;53.184;8.216;2023-11-21T05:23:38;100944.13;;;11.25;100.00
1207;BME280;593;53.184;8.216;2023-11-21T05:26:03;100966.47;;;11.27;100.00
1207;BME280;593;53.184;8.216;2023-11-21T05:28:29;100966.50;;;11.22;100.00
1207;BME280;593;53.184;8.216;2023-11-21T05:30:54;100966.50;;;11.22;100.00
1207;BME280;593;53.184;8.216;2023-11-21T05:33:20;100976.00;;;11.24;100.00
1207;BME280;593;53.184;8.216;2023-11-21T05:35:45;100979.00;;;11.23;100.00
1207;BME280;593;53.184;8.216;2023-11-21T05:38:10;100978.75;;;11.19;100.00
1207;BME280;593;53.184;8.216;2023-11-21T05:40:36;100975.75;;;11.21;100.00
1207;BME280;593;53.184;8.216;2023-11-21T05:43:02;100982.56;;;11.18;100.00
1207;BME280;593;53.184;8.216;2023-11-21T05:45:27;100983.94;;;11.16;100.00
1207;BME280;593;53.184;8.216;2023-11-21T05:47:54;100981.72;;;11.18;100.00
1207;BME280;593;53.184;8.216;2023-11-21T05:50:22;100985.06;;;11.10;100.00
1207;BME280;593;53.184;8.216;2023-11-21T05:52:48;101001.91;;;11.17;100.00
1207;BME280;593;53.184;8.216;2023-11-21T05:55:14;100999.19;;;11.17;100.00
1207;BME280;593;53.184;8.216;2023-11-21T05:57:41;100992.94;;;11.11;100.00
1207;BME280;593;53.184;8.216;2023-11-21T06:00:11;101010.31;;;11.15;100.00
1207;BME280;593;53.184;8.216;2023-11-21T06:02:43;101004.91;;;11.05;100.00
1207;BME280;593;53.184;8.216;2023-11-21T06:05:09;101022.88;;;11.11;100.00
1207;BME280;593;53.184;8.216;2023-11-21T06:07:35;101010.66;;;11.04;100.00
1207;BME280;593;53.184;8.216;2023-11-21T06:10:07;101031.88;;;11.12;100.00
1207;BME280;593;53.184;8.216;2023-11-21T06:12:37;101032.69;;;11.12;100.00
1207;BME280;593;53.184;8.216;2023-11-21T06:15:04;101007.94;;;10.93;100.00
1207;BME280;593;53.184;8.216;2023-11-21T06:17:38;101035.69;;;11.01;100.00
1207;BME280;593;53.184;8.216;2023-11-21T06:20:05;101053.66;;;11.07;100.00
1207;BME280;593;53.184;8.216;2023-11-21T06:22:38;101051.19;;;11.05;100.00
1207;BME280;593;53.184;8.216;2023-11-21T06:25:04;101054.72;;;11.06;100.00
1207;BME280;593;53.184;8.216;2023-11-21T06:27:34;101064.53;;;11.07;100.00
1207;BME280;593;53.184;8.216;2023-11-21T06:30:01;101068.88;;;11.03;100.00
1207;BME280;593;53.184;8.216;2023-11-21T06:32:27;101056.41;;;10.97;100.00
1207;BME280;593;53.184;8.216;2023-11-21T06:34:55;101078.97;;;11.02;100.00
1207;BME280;593;53.184;8.216;2023-11-21T06:37:24;101085.50;;;11.01;100.00
1207;BME280;593;53.184;8.216;2023-11-21T06:39:49;101091.50;;;10.98;100.00
1207;BME280;593;53.184;8.216;2023-11-21T06:42:17;101093.97;;;10.94;100.00
1207;BME280;593;53.184;8.216;2023-11-21T06:44:42;101098.28;;;10.95;100.00
1207;BME280;593;53.184;8.216;2023-11-21T06:47:09;101106.75;;;10.94;100.00
1207;BME280;593;53.184;8.216;2023-11-21T06:49:34;101106.75;;;10.89;100.00
1207;BME280;593;53.184;8.216;2023-11-21T06:52:00;101108.66;;;10.93;100.00
1207;BME280;593;53.184;8.216;2023-11-21T06:54:27;101118.72;;;10.93;100.00
1207;BME280;593;53.184;8.216;2023-11-21T06:56:53;101128.00;;;10.92;100.00
1207;BME280;593;53.184;8.216;2023-11-21T06:59:18;101119.00;;;10.81;100.00
1207;BME280;593;53.184;8.216;2023-11-21T07:01:43;101133.97;;;10.89;100.00
1207;BME280;593;53.184;8.216;2023-11-21T07:04:09;101138.31;;;10.85;100.00
1207;BME280;593;53.184;8.216;2023-11-21T07:06:35;101126.06;;;10.77;100.00
1207;BME280;593;53.184;8.216;2023-11-21T07:09:00;101135.03;;;10.78;100.00
1207;BME280;593;53.184;8.216;2023-11-21T07:11:27;101152.47;;;10.82;100.00
1207;BME280;593;53.184;8.216;2023-11-21T07:13:52;101155.44;;;10.80;100.00
1207;BME280;593;53.184;8.216;2023-11-21T07:16:18;101160.34;;;10.78;100.00
1207;BME280;593;53.184;8.216;2023-11-21T07:18:44;101166.09;;;10.77;100.00
1207;BME280;593;53.184;8.216;2023-11-21T07:21:10;101164.72;;;10.74;100.00
1207;BME280;593;53.184;8.216;2023-11-21T07:23:37;101175.84;;;10.73;100.00
1207;BME280;593;53.184;8.216;2023-11-21T07:26:03;101171.22;;;10.68;100.00
1207;BME280;593;53.184;8.216;2023-11-21T07:28:29;101182.09;;;10.68;100.00
1207;BME280;593;53.184;8.216;2023-11-21T07:30:55;101178.03;;;10.66;100.00
1207;BME280;593;53.184;8.216;2023-11-21T07:33:20;101169.56;;;10.57;100.00
1207;BME280;593;53.184;8.216;2023-11-21T07:35:46;101190.53;;;10.62;100.00
1207;BME280;593;53.184;8.216;2023-11-21T07:38:12;101191.06;;;10.59;100.00
1207;BME280;593;53.184;8.216;2023-11-21T07:40:39;101192.16;;;10.58;100.00
1207;BME280;593;53.184;8.216;2023-11-21T07:43:04;101183.97;;;10.48;100.00
1207;BME280;593;53.184;8.216;2023-11-21T07:45:31;101198.13;;;10.55;100.00
1207;BME280;593;53.184;8.216;2023-11-21T07:47:56;101210.09;;;10.54;100.00
1207;BME280;593;53.184;8.216;2023-11-21T07:50:22;101209.56;;;10.47;100.00
1207;BME280;593;53.184;8.216;2023-11-21T07:52:48;101221.53;;;10.51;100.00
1207;BME280;593;53.184;8.216;2023-11-21T07:55:15;101234.81;;;10.47;100.00
1207;BME280;593;53.184;8.216;2023-11-21T07:57:40;101241.91;;;10.48;100.00
1207;BME280;593;53.184;8.216;2023-11-21T08:00:06;101250.06;;;10.48;100.00
1207;BME280;593;53.184;8.216;2023-11-21T08:02:34;101250.34;;;10.47;100.00
1207;BME280;593;53.184;8.216;2023-11-21T08:05:00;101252.50;;;10.45;100.00
1207;BME280;593;53.184;8.216;2023-11-21T08:07:26;101254.66;;;10.43;100.00
1207;BME280;593;53.184;8.216;2023-11-21T08:09:51;101251.69;;;10.39;100.00
1207;BME280;593;53.184;8.216;2023-11-21T08:12:18;101263.34;;;10.40;100.00
1207;BME280;593;53.184;8.216;2023-11-21T08:14:45;101268.25;;;10.38;100.00
1207;BME280;593;53.184;8.216;2023-11-21T08:17:11;101272.84;;;10.37;100.00
1207;BME280;593;53.184;8.216;2023-11-21T08:19:36;101279.13;;;10.38;100.00
1207;BME280;593;53.184;8.216;2023-11-21T08:22:03;101277.22;;;10.38;100.00
1207;BME280;593;53.184;8.216;2023-11-21T08:24:28;101267.16;;;10.34;100.00
1207;BME280;593;53.184;8.216;2023-11-21T08:26:55;101276.41;;;10.38;100.00
1207;BME280;593;53.184;8.216;2023-11-21T08:29:21;101284.56;;;10.38;100.00
1207;BME280;593;53.184;8.216;2023-11-21T08:31:48;101287.28;;;10.38;100.00
1207;BME280;593;53.184;8.216;2023-11-21T08:34:13;101293.81;;;10.37;100.00
1207;BME280;593;53.184;8.216;2023-11-21T08:36:43;101296.25;;;10.38;100.00
1207;BME280;593;53.184;8.216;2023-11-21T08:39:09;101299.25;;;10.37;100.00
1207;BME280;593;53.184;8.216;2023-11-21T08:41:35;101307.41;;;10.37;100.00
1207;BME280;593;53.184;8.216;2023-11-21T08:44:02;101307.41;;;10.37;100.00
1207;BME280;593;53.184;8.216;2023-11-21T08:46:30;101307.94;;;10.34;100.00
1207;BME280;593;53.184;8.216;2023-11-21T08:48:56;101317.19;;;10.38;100.00
1207;BME280;593;53.184;8.216;2023-11-21T08:51:21;101318.84;;;10.39;100.00
1207;BME280;593;53.184;8.216;2023-11-21T08:53:52;101326.72;;;10.40;100.00
1207;BME280;593;53.184;8.216;2023-11-21T08:56:18;101329.72;;;10.39;100.00
1207;BME280;593;53.184;8.216;2023-11-21T08:58:45;101333.25;;;10.39;100.00
1207;BME280;593;53.184;8.216;2023-11-21T09:01:12;101340.31;;;10.40;100.00
1207;BME280;593;53.184;8.216;2023-11-21T09:03:37;101343.56;;;10.42;100.00
1207;BME280;593;53.184;8.216;2023-11-21T09:06:03;101346.56;;;10.41;100.00
1207;BME280;593;53.184;8.216;2023-11-21T09:08:29;101357.44;;;10.41;100.00
1207;BME280;593;53.184;8.216;2023-11-21T09:10:55;101359.09;;;10.42;100.00
1207;BME280;593;53.184;8.216;2023-11-21T09:13:20;101367.25;;;10.42;100.00
1207;BME280;593;53.184;8.216;2023-11-21T09:15:45;101369.69;;;10.43;100.00
1207;BME280;593;53.184;8.216;2023-11-21T09:18:14;101378.69;;;10.44;100.00
1207;BME280;593;53.184;8.216;2023-11-21T09:20:40;101384.94;;;10.44;100.00
1207;BME280;593;53.184;8.216;2023-11-21T09:23:06;101389.56;;;10.44;100.00
1207;BME280;593;53.184;8.216;2023-11-21T09:25:32;101396.38;;;10.46;100.00
1207;BME280;593;53.184;8.216;2023-11-21T09:27:58;101386.53;;;10.40;100.00
1207;BME280;593;53.184;8.216;2023-11-21T09:30:23;101399.94;;;10.47;100.00
1207;BME280;593;53.184;8.216;2023-11-21T09:32:52;101403.44;;;10.47;100.00
1207;BME280;593;53.184;8.216;2023-11-21T09:35:18;101408.09;;;10.47;100.00
1207;BME280;593;53.184;8.216;2023-11-21T09:37:46;101412.19;;;10.49;100.00
1207;BME280;593;53.184;8.216;2023-11-21T09:40:12;101423.06;;;10.49;100.00
1207;BME280;593;53.184;8.216;2023-11-21T09:42:55;101413.56;;;10.52;100.00
1207;BME280;593;53.184;8.216;2023-11-21T09:47:52;101416.28;;;10.52;100.00
1207;BME280;593;53.184;8.216;2023-11-21T09:50:19;101415.44;;;10.51;100.00
1207;BME280;593;53.184;8.216;2023-11-21T09:55:34;101423.88;;;10.55;100.00
1207;BME280;593;53.184;8.216;2023-11-21T09:58:04;101429.31;;;10.55;100.00
1207;BME280;593;53.184;8.216;2023-11-21T10:00:33;101430.97;;;10.56;100.00
1207;BME280;593;53.184;8.216;2023-11-21T10:02:58;101432.03;;;10.55;100.00
1207;BME280;593;53.184;8.216;2023-11-21T10:05:24;101444.56;;;10.56;100.00
1207;BME280;593;53.184;8.216;2023-11-21T10:07:50;101446.75;;;10.54;100.00
1207;BME280;593;53.184;8.216;2023-11-21T10:10:18;101446.47;;;10.55;100.00
1207;BME280;593;53.184;8.216;2023-11-21T10:12:48;101444.25;;;10.52;100.00
1207;BME280;593;53.184;8.216;2023-11-21T10:15:16;101448.94;;;10.57;100.00
1207;BME280;593;53.184;8.216;2023-11-21T10:17:42;101455.19;;;10.57;100.00
1207;BME280;593;53.184;8.216;2023-11-21T10:20:11;101451.38;;;10.58;100.00
1207;BME280;593;53.184;8.216;2023-11-21T10:22:39;101459.28;;;10.60;100.00
1207;BME280;593;53.184;8.216;2023-11-21T10:25:06;101463.38;;;10.62;100.00
1207;BME280;593;53.184;8.216;2023-11-21T10:27:33;101466.09;;;10.62;100.00
1207;BME280;593;53.184;8.216;2023-11-21T10:30:01;101465.84;;;10.64;100.00
1207;BME280;593;53.184;8.216;2023-11-21T10:32:28;101467.47;;;10.65;100.00
1207;BME280;593;53.184;8.216;2023-11-21T10:34:57;101478.34;;;10.65;100.00
1207;BME280;593;53.184;8.216;2023-11-21T10:37:24;101470.78;;;10.67;100.00
1207;BME280;593;53.184;8.216;2023-11-21T10:39:49;101477.00;;;10.67;100.00
1207;BME280;593;53.184;8.216;2023-11-21T10:42:17;101476.75;;;10.69;100.00
1207;BME280;593;53.184;8.216;2023-11-21T10:44:45;101482.75;;;10.71;100.00
1207;BME280;593;53.184;8.216;2023-11-21T10:47:11;101482.75;;;10.71;100.00
1207;BME280;593;53.184;8.216;2023-11-21T10:49:37;101472.16;;;10.69;100.00
1207;BME280;593;53.184;8.216;2023-11-21T10:52:03;101481.69;;;10.72;100.00
1207;BME280;593;53.184;8.216;2023-11-21T10:54:29;101488.75;;;10.73;100.00
1207;BME280;593;53.184;8.216;2023-11-21T10:56:59;101484.66;;;10.70;100.00
1207;BME280;593;53.184;8.216;2023-11-21T10:59:28;101494.75;;;10.75;100.00
1207;BME280;593;53.184;8.216;2023-11-21T11:01:57;101503.47;;;10.77;100.00
1207;BME280;593;53.184;8.216;2023-11-21T11:04:24;101503.22;;;10.78;100.00
1207;BME280;593;53.184;8.216;2023-11-21T11:06:57;101497.22;;;10.76;100.00
1207;BME280;593;53.184;8.216;2023-11-21T11:09:23;101499.13;;;10.81;100.00
1207;BME280;593;53.184;8.216;2023-11-21T11:11:49;101504.59;;;10.81;100.00
1207;BME280;593;53.184;8.216;2023-11-21T11:14:16;101500.78;;;10.82;100.00
1207;BME280;593;53.184;8.216;2023-11-21T11:16:45;101503.47;;;10.77;100.00
1207;BME280;593;53.184;8.216;2023-11-21T11:19:13;101506.78;;;10.84;100.00
1207;BME280;593;53.184;8.216;2023-11-21T11:29:57;101512.25;;;10.89;100.00
1207;BME280;593;53.184;8.216;2023-11-21T11:32:59;101522.88;;;10.90;100.00
1207;BME280;593;53.184;8.216;2023-11-21T11:37:54;101524.75;;;10.90;100.00
1207;BME280;593;53.184;8.216;2023-11-21T11:40:19;101532.94;;;10.90;100.00
1207;BME280;593;53.184;8.216;2023-11-21T11:42:58;101537.31;;;10.91;100.00
1207;BME280;593;53.184;8.216;2023-11-21T11:45:33;101537.81;;;10.88;100.00
1207;BME280;593;53.184;8.216;2023-11-21T11:48:02;101537.56;;;10.89;100.00
1207;BME280;593;53.184;8.216;2023-11-21T11:50:28;101536.19;;;10.87;100.00
1207;BME280;593;53.184;8.216;2023-11-21T11:52:55;101543.56;;;10.91;100.00
1207;BME280;593;53.184;8.216;2023-11-21T11:55:24;101538.94;;;10.92;100.00
1207;BME280;593;53.184;8.216;2023-11-21T11:57:56;101549.25;;;10.90;100.00
1207;BME280;593;53.184;8.216;2023-11-21T12:03:00;101555.28;;;10.92;100.00
1207;BME280;593;53.184;8.216;2023-11-21T12:05:29;101555.28;;;10.92;100.00
1207;BME280;593;53.184;8.216;2023-11-21T12:08:00;101558.25;;;10.90;100.00
1207;BME280;593;53.184;8.216;2023-11-21T12:10:28;101575.41;;;10.91;100.00
1207;BME280;593;53.184;8.216;2023-11-21T12:12:58;101562.59;;;10.86;100.00
1207;BME280;593;53.184;8.216;2023-11-21T12:15:25;101570.78;;;10.91;100.00
1207;BME280;593;53.184;8.216;2023-11-21T12:17:52;101578.41;;;10.89;100.00
1207;BME280;593;53.184;8.216;2023-11-21T12:20:19;101583.03;;;10.89;100.00
1207;BME280;593;53.184;8.216;2023-11-21T12:22:46;101584.09;;;10.88;100.00
1207;BME280;593;53.184;8.216;2023-11-21T12:25:19;101584.09;;;10.88;100.00
1207;BME280;593;53.184;8.216;2023-11-21T12:27:45;101589.53;;;10.88;100.00
1207;BME280;593;53.184;8.216;2023-11-21T12:30:12;101595.25;;;10.86;100.00
1207;BME280;593;53.184;8.216;2023-11-21T12:32:48;101599.59;;;10.87;100.00
1207;BME280;593;53.184;8.216;2023-11-21T12:35:14;101587.31;;;10.85;100.00
1207;BME280;593;53.184;8.216;2023-11-21T12:37:41;101594.41;;;10.86;100.00
1207;BME280;593;53.184;8.216;2023-11-21T12:40:08;101602.59;;;10.86;100.00
1207;BME280;593;53.184;8.216;2023-11-21T12:42:37;101601.75;;;10.85;100.00
1207;BME280;593;53.184;8.216;2023-11-21T12:45:10;101600.09;;;10.79;100.00
1207;BME280;593;53.184;8.216;2023-11-21T12:47:47;101607.72;;;10.82;100.00
1207;BME280;593;53.184;8.216;2023-11-21T12:50:18;101606.91;;;10.82;100.00
1207;BME280;593;53.184;8.216;2023-11-21T12:52:47;101601.72;;;10.80;100.00
1207;BME280;593;53.184;8.216;2023-11-21T12:55:16;101608.50;;;10.78;100.00
1207;BME280;593;53.184;8.216;2023-11-21T12:57:47;101614.25;;;10.81;100.00
1207;BME280;593;53.184;8.216;2023-11-21T13:00:16;101615.09;;;10.82;100.00
1207;BME280;593;53.184;8.216;2023-11-21T13:02:56;101622.66;;;10.80;100.00
1207;BME280;593;53.184;8.216;2023-11-21T13:05:30;101627.31;;;10.79;100.00
1207;BME280;593;53.184;8.216;2023-11-21T13:07:57;101631.94;;;10.79;100.00
1207;BME280;593;53.184;8.216;2023-11-21T13:10:27;101627.56;;;10.78;100.00
1207;BME280;593;53.184;8.216;2023-11-21T13:13:05;101635.72;;;10.78;100.00
1207;BME280;593;53.184;8.216;2023-11-21T13:15:33;101649.31;;;10.78;100.00
1207;BME280;593;53.184;8.216;2023-11-21T13:18:01;101639.53;;;10.77;100.00
1207;BME280;593;53.184;8.216;2023-11-21T13:20:27;101635.44;;;10.74;100.00
1207;BME280;593;53.184;8.216;2023-11-21T13:22:56;101641.66;;;10.75;100.00
1207;BME280;593;53.184;8.216;2023-11-21T13:25:26;101643.31;;;10.76;100.00
1207;BME280;593;53.184;8.216;2023-11-21T13:27:53;101646.03;;;10.76;100.00
1207;BME280;593;53.184;8.216;2023-11-21T13:30:19;101638.41;;;10.73;100.00